SBCP/CAW METAR and TAF weather

Enter ICAO airport designator
Station Type Date Time Source
SBCP METAR 2022/09/28 19:00 UTC NOAA

SBCP 281900Z 19012KT 9999 SCT020 OVC080 25/20 Q1014


Station Type Date Time Source
SBCP Decoded METAR 2022/09/28 19:00 UTC NOAA

Campos, Brazil (SBCP) 21-45S 041-20W 11M
Sep 28, 2022 - 03:00 PM EDT / 2022.09.28 1900 UTC
Wind: from the S (190 degrees) at 14 MPH (12 KT):0
Visibility: greater than 7 mile(s):0
Sky conditions: overcast
Temperature: 77 F (25 C)
Dew Point: 68 F (20 C)
Relative Humidity: 73%
Pressure (altimeter): 29.94 in. Hg (1014 hPa)
ob: SBCP 281900Z 19012KT 9999 SCT020 OVC080 25/20 Q1014
cycle: 19

Station Type Date Time Source
SBCP TAF 2022/09/28 18:10 UTC NOAA

TAF SBCP 281610Z 2818/2906 18015KT 7000 SCT015 TX25/2818Z TN21/2906Z
BECMG 2900/2902 21010KT 3000 RA BR BKN006
RMK PFV

Example: see airport list